Portada
METAR-TAF:

METAR-TAF

Aeroports :

Cayman Brac, Illes Caiman

latitud: 19-41-13N, longitud: 079-52-58W, altitud: 2 m

Observació

L'informe es va fer fa 12 minuts, a les 15:00 UTC
Vent 6 kt del Est
Temperatura 30°C
Humitat 75%
Pressió 1016 hPa
Visibilitat 10 km o més
Escasses núvols a una alçada de 1800 ft

METAR: MWCB 261500Z 10006KT 9999 FEW018 30/25 Q1016

Hora: 10:12 (15:12 UTC)

Pronòstic

L'informe es va fer fa 4 hores i 12 minuts, a les 11:00 UTC
Pronòstic vàlid del 26 a les 12 UTC al 27 a les 12 UTC
Vent 5 kt del Sud-Est
Visibilitat 10 km o més
Escasses núvols a una alçada de 1800 ft
Temporalment
l' 26 a les 19 UTC al 26 a les 23 UTC
Visibilitat: 9000 m
Núvols disperses a una alçada de 1600 ft, Cumulonimbus.
xàfecs de pluja

TAF: MWCB 261100Z 2612/2712 13005KT 9999 FEW018 TEMPO 2619/2623 9000 SHRA SCT016CB

Observacions i pronòstics meteorològics de més de 4000 aeroports (METAR i TAF).

Les estacions disponibles són els punts grocs i vermells al mapa.

Posi el ratolí al punt desitjat per veure el nom de l'estació.

Feu clic per veure les observacions i els pronòstics meteorològics.

Per canviar el mapa: feu clic els botons verds amb una creu de color negre per apropar; al botó verd amb un guió per allunyar la imatge; o en les fletxes verdes per a mapes adjacents.


METAR-TAF: